createdAt,value
2017-12-01T00:00:59.887Z,91.0
2017-12-01T00:02:01.277Z,91.0
2017-12-01T00:03:02.706Z,90.9
2017-12-01T00:04:04.095Z,91.0
2017-12-01T00:05:05.489Z,91.0
2017-12-01T00:06:06.893Z,91.1
2017-12-01T00:07:08.295Z,91.0
2017-12-01T00:08:09.688Z,91.2
2017-12-01T00:09:11.079Z,91.1
2017-12-01T00:10:12.477Z,91.1
2017-12-01T00:11:13.882Z,91.1
2017-12-01T00:12:15.275Z,91.1
2017-12-01T00:13:16.666Z,91.3
2017-12-01T00:14:18.062Z,91.6
2017-12-01T00:15:19.455Z,91.4
2017-12-01T00:16:20.909Z,90.9
2017-12-01T00:17:22.314Z,90.5
2017-12-01T00:18:23.706Z,90.7
2017-12-01T00:19:25.101Z,90.8
2017-12-01T00:20:26.505Z,90.7
2017-12-01T00:21:27.900Z,91.0
2017-12-01T00:22:29.296Z,90.7
2017-12-01T00:23:30.687Z,90.9
2017-12-01T00:24:32.079Z,90.7
2017-12-01T00:25:33.472Z,90.5
2017-12-01T00:26:34.869Z,90.7
2017-12-01T00:27:36.263Z,90.4
2017-12-01T00:28:38.572Z,90.5
2017-12-01T00:29:39.970Z,90.5
2017-12-01T00:30:41.364Z,90.3
2017-12-01T00:31:42.760Z,90.3
2017-12-01T00:32:44.157Z,90.4
2017-12-01T00:33:45.562Z,90.0
2017-12-01T00:34:46.958Z,90.3
2017-12-01T00:35:48.355Z,90.5
2017-12-01T00:36:49.739Z,90.5
2017-12-01T00:37:51.148Z,90.7
2017-12-01T00:38:52.547Z,90.4
2017-12-01T00:39:53.953Z,90.1
2017-12-01T00:40:55.347Z,89.8
2017-12-01T00:41:56.756Z,90.0
2017-12-01T00:42:58.149Z,90.0
2017-12-01T00:43:59.546Z,89.9
2017-12-01T00:45:00.956Z,90.0
2017-12-01T00:46:02.346Z,90.2
2017-12-01T00:47:03.739Z,90.0
2017-12-01T00:48:05.130Z,89.9
2017-12-01T00:49:06.528Z,89.9
2017-12-01T00:50:07.930Z,90.4
2017-12-01T00:51:09.323Z,90.4
2017-12-01T00:52:10.725Z,90.6
2017-12-01T00:53:12.145Z,90.8
2017-12-01T00:54:13.538Z,90.7
2017-12-01T00:55:14.940Z,90.6
2017-12-01T00:56:16.329Z,90.8
2017-12-01T00:57:17.729Z,90.5
2017-12-01T00:58:19.119Z,91.4
2017-12-01T00:59:20.514Z,91.2
2017-12-01T01:00:21.911Z,91.0
2017-12-01T01:01:23.305Z,90.9
2017-12-01T01:02:24.789Z,91.6
2017-12-01T01:03:26.189Z,91.4
2017-12-01T01:04:27.600Z,91.5
2017-12-01T01:05:28.999Z,91.4
2017-12-01T01:06:30.387Z,91.1
2017-12-01T01:07:31.793Z,91.2
2017-12-01T01:08:33.187Z,91.5
2017-12-01T01:09:34.583Z,91.2
2017-12-01T01:10:35.988Z,91.6
2017-12-01T01:11:37.377Z,91.8
2017-12-01T01:12:38.763Z,91.6
2017-12-01T01:13:40.244Z,91.5
2017-12-01T01:14:41.540Z,91.7
2017-12-01T01:15:42.952Z,91.5
2017-12-01T01:16:44.352Z,91.5
2017-12-01T01:17:45.757Z,91.7
2017-12-01T01:18:47.151Z,91.6
2017-12-01T01:19:48.980Z,91.5
2017-12-01T01:20:50.376Z,91.6
2017-12-01T01:21:51.774Z,91.7
2017-12-01T01:22:53.184Z,91.3
2017-12-01T01:23:54.577Z,91.5
2017-12-01T01:24:55.973Z,91.3
2017-12-01T01:25:57.365Z,91.8
2017-12-01T01:26:58.778Z,91.8
2017-12-01T01:28:00.163Z,91.6
2017-12-01T01:29:01.557Z,91.4
2017-12-01T01:30:02.957Z,91.8
2017-12-01T01:31:04.355Z,92.0
2017-12-01T01:32:05.741Z,91.9
2017-12-01T01:33:07.136Z,91.9
2017-12-01T01:34:08.549Z,92.0
2017-12-01T01:35:09.952Z,91.5
2017-12-01T01:36:11.363Z,91.8
2017-12-01T01:37:12.764Z,92.0
2017-12-01T01:38:14.160Z,91.9
2017-12-01T01:39:15.557Z,91.4
2017-12-01T01:40:16.959Z,91.6
2017-12-01T01:41:18.353Z,91.4
2017-12-01T01:42:19.745Z,91.6
2017-12-01T01:43:21.143Z,91.3
2017-12-01T01:44:22.535Z,91.7
2017-12-01T01:45:23.927Z,91.3
2017-12-01T01:46:25.378Z,91.5
2017-12-01T01:47:26.765Z,91.2
2017-12-01T01:48:28.227Z,91.3
2017-12-01T01:49:29.567Z,91.4
2017-12-01T01:50:30.972Z,91.5
2017-12-01T01:51:32.376Z,91.4
2017-12-01T01:52:33.769Z,91.2
2017-12-01T01:53:35.170Z,91.3
2017-12-01T01:54:36.561Z,91.3
2017-12-01T01:55:37.959Z,91.5
2017-12-01T01:56:39.351Z,91.4
2017-12-01T01:57:40.746Z,91.3
2017-12-01T01:58:42.140Z,91.2
2017-12-01T01:59:43.535Z,91.3
2017-12-01T02:00:44.932Z,91.2
2017-12-01T02:01:46.324Z,91.2
2017-12-01T02:02:47.719Z,91.8
2017-12-01T02:03:49.118Z,91.7
2017-12-01T02:04:50.516Z,91.7
2017-12-01T02:05:51.922Z,91.7
2017-12-01T02:06:53.336Z,91.6
2017-12-01T02:07:54.729Z,91.9
2017-12-01T02:08:56.139Z,91.7
2017-12-01T02:09:57.537Z,91.7
2017-12-01T02:10:58.927Z,91.7
2017-12-01T02:12:00.320Z,91.3
2017-12-01T02:13:01.712Z,91.5
2017-12-01T02:14:03.107Z,91.8
2017-12-01T02:15:04.515Z,91.6
2017-12-01T02:16:05.905Z,91.8
2017-12-01T02:17:07.305Z,91.9
2017-12-01T02:18:08.698Z,91.6
2017-12-01T02:19:10.097Z,92.0
2017-12-01T02:20:11.490Z,91.7
2017-12-01T02:21:12.889Z,92.1
2017-12-01T02:22:14.279Z,92.0
2017-12-01T02:23:15.685Z,91.8
2017-12-01T02:24:17.101Z,92.4
2017-12-01T02:25:18.506Z,92.2
2017-12-01T02:26:19.903Z,92.3
2017-12-01T02:27:21.297Z,92.2
2017-12-01T02:28:22.705Z,92.2
2017-12-01T02:29:24.111Z,92.4
2017-12-01T02:30:25.505Z,92.1
2017-12-01T02:31:26.899Z,92.0
2017-12-01T02:32:28.291Z,92.1
2017-12-01T02:33:29.683Z,92.6
2017-12-01T02:34:31.083Z,92.2
2017-12-01T02:35:32.483Z,92.2
2017-12-01T02:36:33.876Z,92.3
2017-12-01T02:37:35.266Z,92.3
2017-12-01T02:38:36.657Z,92.8
2017-12-01T02:39:38.047Z,92.8
2017-12-01T02:40:39.446Z,92.8
2017-12-01T02:41:40.866Z,92.8
2017-12-01T02:42:42.254Z,92.4
2017-12-01T02:43:43.648Z,92.7
2017-12-01T02:44:45.050Z,92.7
2017-12-01T02:45:46.430Z,92.8
2017-12-01T02:46:47.820Z,92.9
2017-12-01T02:47:49.214Z,92.8
2017-12-01T02:48:50.608Z,92.8
2017-12-01T02:49:52.000Z,92.9
2017-12-01T02:50:53.398Z,93.1
2017-12-01T02:51:54.795Z,93.1
2017-12-01T02:52:56.186Z,92.8
2017-12-01T02:53:57.577Z,93.3
2017-12-01T02:54:58.969Z,93.3
2017-12-01T02:56:00.398Z,92.9
2017-12-01T02:57:01.794Z,93.4
2017-12-01T02:58:03.189Z,93.2
2017-12-01T02:59:04.580Z,93.1
2017-12-01T03:00:05.970Z,93.3
2017-12-01T03:01:07.373Z,93.2
2017-12-01T03:02:08.761Z,92.9
2017-12-01T03:03:10.163Z,93.1
2017-12-01T03:04:11.561Z,92.8
2017-12-01T03:05:12.963Z,92.8
2017-12-01T03:06:14.352Z,92.6
2017-12-01T03:07:15.745Z,92.8
2017-12-01T03:08:17.139Z,93.0
2017-12-01T03:09:18.534Z,92.7
2017-12-01T03:10:19.928Z,92.6
2017-12-01T03:11:21.321Z,92.7
2017-12-01T03:12:22.728Z,92.9
2017-12-01T03:13:24.120Z,92.9
2017-12-01T03:14:25.517Z,92.7
2017-12-01T03:15:26.909Z,92.7
2017-12-01T03:16:28.304Z,92.7
2017-12-01T03:17:29.704Z,92.8
2017-12-01T03:18:31.097Z,92.5
2017-12-01T03:19:32.494Z,92.8
2017-12-01T03:20:33.999Z,92.8
2017-12-01T03:21:35.388Z,92.8
2017-12-01T03:22:36.797Z,92.8
2017-12-01T03:23:38.187Z,92.4
2017-12-01T03:24:39.591Z,92.8
2017-12-01T03:25:40.999Z,93.0
2017-12-01T03:26:42.390Z,92.4
2017-12-01T03:27:43.783Z,92.5
2017-12-01T03:28:45.174Z,92.9
2017-12-01T03:29:46.580Z,92.7
2017-12-01T03:30:47.959Z,92.8
2017-12-01T03:31:49.393Z,92.8
2017-12-01T03:32:50.788Z,92.8
2017-12-01T03:33:52.186Z,92.8
2017-12-01T03:34:53.604Z,92.8
2017-12-01T03:35:55.106Z,92.9
2017-12-01T03:36:56.506Z,92.7
2017-12-01T03:37:57.904Z,92.8
2017-12-01T03:38:59.303Z,92.6
2017-12-01T03:40:00.716Z,92.8
2017-12-01T03:41:02.111Z,92.7
2017-12-01T03:42:03.511Z,92.9
2017-12-01T03:43:05.043Z,92.8
2017-12-01T03:44:06.469Z,92.8
2017-12-01T03:45:07.859Z,92.6
2017-12-01T03:46:09.256Z,92.8
2017-12-01T03:47:10.766Z,92.8
2017-12-01T03:48:12.161Z,92.6
2017-12-01T03:49:13.562Z,92.4
2017-12-01T03:50:14.993Z,92.8
2017-12-01T03:51:16.386Z,92.7
2017-12-01T03:52:17.779Z,92.8
2017-12-01T03:53:19.172Z,92.7
2017-12-01T03:54:20.867Z,92.8
2017-12-01T03:55:22.257Z,92.8
2017-12-01T03:56:23.660Z,92.7
2017-12-01T03:57:25.055Z,92.9
2017-12-01T03:58:26.455Z,92.8
2017-12-01T03:59:27.893Z,92.7
2017-12-01T04:00:29.509Z,92.9
2017-12-01T04:01:30.876Z,92.9
2017-12-01T04:02:32.600Z,92.8
2017-12-01T04:03:34.073Z,92.6
2017-12-01T04:04:35.477Z,93.0
2017-12-01T04:05:37.032Z,92.9
2017-12-01T04:06:38.481Z,93.1
2017-12-01T04:07:39.889Z,92.7
2017-12-01T04:08:41.311Z,92.5
2017-12-01T04:09:42.721Z,92.7
2017-12-01T04:10:44.101Z,92.8
2017-12-01T04:11:45.504Z,92.7
2017-12-01T04:12:46.905Z,93.0
2017-12-01T04:13:48.309Z,92.7
2017-12-01T04:14:49.718Z,92.8
2017-12-01T04:15:51.116Z,92.5
2017-12-01T04:16:52.511Z,92.8
2017-12-01T04:17:53.907Z,92.7
2017-12-01T04:18:55.303Z,92.7
2017-12-01T04:19:56.703Z,92.4
2017-12-01T04:20:58.102Z,92.3
2017-12-01T04:21:59.511Z,92.5
2017-12-01T04:23:00.909Z,92.8
2017-12-01T04:24:02.321Z,93.0
2017-12-01T04:25:03.724Z,92.8
2017-12-01T04:26:05.128Z,92.6
2017-12-01T04:27:06.525Z,92.6
2017-12-01T04:28:07.944Z,92.6
2017-12-01T04:29:09.342Z,92.8
2017-12-01T04:30:10.740Z,92.9
2017-12-01T04:31:12.144Z,92.7
2017-12-01T04:32:13.535Z,93.0
2017-12-01T04:33:14.937Z,92.9
2017-12-01T04:34:16.332Z,92.4
2017-12-01T04:35:17.743Z,92.2
2017-12-01T04:36:19.146Z,92.5
2017-12-01T04:37:20.546Z,92.4
2017-12-01T04:38:21.937Z,92.8
2017-12-01T04:39:23.332Z,92.6
2017-12-01T04:40:24.728Z,92.7
2017-12-01T04:41:26.139Z,92.9
2017-12-01T04:42:27.547Z,93.0
2017-12-01T04:43:28.940Z,92.6
2017-12-01T04:44:30.334Z,92.5
2017-12-01T04:45:31.732Z,92.7
2017-12-01T04:46:33.125Z,92.7
2017-12-01T04:47:34.524Z,92.9
2017-12-01T04:48:35.919Z,92.8
2017-12-01T04:49:37.315Z,92.7
2017-12-01T04:50:38.784Z,92.8
2017-12-01T04:51:40.171Z,93.0
2017-12-01T04:52:41.861Z,92.8
2017-12-01T04:53:43.252Z,92.6
2017-12-01T04:54:44.664Z,92.7
2017-12-01T04:55:46.056Z,92.9
2017-12-01T04:56:47.468Z,93.0
2017-12-01T04:57:48.865Z,93.0
2017-12-01T04:58:50.268Z,92.8
2017-12-01T04:59:51.668Z,92.9
2017-12-01T05:00:53.067Z,92.5
2017-12-01T05:01:54.484Z,92.8
2017-12-01T05:02:55.882Z,92.7
2017-12-01T05:03:57.275Z,92.9
2017-12-01T05:04:58.682Z,92.8
2017-12-01T05:06:00.226Z,92.9
2017-12-01T05:07:01.631Z,92.6
2017-12-01T05:08:03.035Z,92.7
2017-12-01T05:09:04.431Z,92.9
2017-12-01T05:10:05.833Z,92.6
2017-12-01T05:11:07.219Z,92.7
2017-12-01T05:12:08.614Z,92.8
2017-12-01T05:13:10.009Z,92.8
2017-12-01T05:14:11.406Z,92.8
2017-12-01T05:15:12.800Z,92.8
2017-12-01T05:16:14.195Z,93.3
2017-12-01T05:17:15.588Z,93.2
2017-12-01T05:18:16.981Z,93.1
2017-12-01T05:19:18.385Z,93.3
2017-12-01T05:20:19.783Z,93.1
2017-12-01T05:21:21.184Z,93.5
2017-12-01T05:22:22.582Z,93.4
2017-12-01T05:23:23.983Z,93.4
2017-12-01T05:24:25.570Z,93.5
2017-12-01T05:25:26.982Z,93.5
2017-12-01T05:26:28.374Z,93.5
2017-12-01T05:27:29.770Z,93.4
2017-12-01T05:28:31.167Z,92.9
2017-12-01T05:29:32.573Z,93.1
2017-12-01T05:30:33.970Z,93.8
2017-12-01T05:31:35.364Z,93.7
2017-12-01T05:32:36.754Z,93.9
2017-12-01T05:33:38.164Z,93.8
2017-12-01T05:34:39.558Z,93.6
2017-12-01T05:35:40.960Z,93.8
2017-12-01T05:36:42.404Z,93.6
2017-12-01T05:37:43.801Z,93.8
2017-12-01T05:38:45.204Z,93.8
2017-12-01T05:39:46.604Z,93.8
2017-12-01T05:40:47.998Z,93.8
2017-12-01T05:41:49.391Z,93.8
2017-12-01T05:42:50.795Z,92.9
2017-12-01T05:43:52.187Z,93.7
2017-12-01T05:44:53.591Z,93.8
2017-12-01T05:45:54.981Z,93.8
2017-12-01T05:46:56.377Z,93.9
2017-12-01T05:47:57.768Z,93.8
2017-12-01T05:48:59.173Z,93.1
2017-12-01T05:50:00.575Z,93.0
2017-12-01T05:51:01.966Z,93.6
2017-12-01T05:52:03.400Z,93.7
2017-12-01T05:53:04.789Z,93.6
2017-12-01T05:54:06.184Z,93.8
2017-12-01T05:55:07.586Z,93.2
2017-12-01T05:56:09.000Z,93.1
2017-12-01T05:57:10.406Z,93.1
2017-12-01T05:58:11.812Z,93.7
2017-12-01T05:59:13.217Z,93.7
2017-12-01T06:00:14.610Z,93.8
2017-12-01T06:01:15.996Z,92.9
2017-12-01T06:02:17.402Z,92.9
2017-12-01T06:03:18.907Z,93.2
2017-12-01T06:04:20.299Z,93.8
2017-12-01T06:05:22.285Z,93.8
2017-12-01T06:06:23.678Z,93.8
2017-12-01T06:07:25.075Z,93.8
2017-12-01T06:08:26.476Z,93.5
2017-12-01T06:09:27.872Z,93.1
2017-12-01T06:10:29.276Z,93.7
2017-12-01T06:11:30.670Z,93.4
2017-12-01T06:12:32.086Z,93.4
2017-12-01T06:13:33.489Z,93.3
2017-12-01T06:14:34.886Z,93.4
2017-12-01T06:15:36.272Z,93.5
2017-12-01T06:16:37.673Z,93.4
2017-12-01T06:17:39.082Z,93.4
2017-12-01T06:18:40.486Z,93.3
2017-12-01T06:19:41.890Z,93.4
2017-12-01T06:20:43.280Z,93.4
2017-12-01T06:21:44.674Z,93.4
2017-12-01T06:22:46.069Z,93.2
2017-12-01T06:23:47.459Z,93.3
2017-12-01T06:24:48.858Z,93.4
2017-12-01T06:25:50.252Z,93.3
2017-12-01T06:26:51.676Z,93.4
2017-12-01T06:27:53.067Z,93.6
2017-12-01T06:28:54.467Z,93.5
2017-12-01T06:29:55.870Z,92.9
2017-12-01T06:30:57.268Z,92.8
2017-12-01T06:31:58.658Z,93.1
2017-12-01T06:33:00.056Z,93.4
2017-12-01T06:34:01.439Z,93.3
2017-12-01T06:35:02.839Z,93.5
2017-12-01T06:36:04.473Z,93.5
2017-12-01T06:37:05.863Z,93.2
2017-12-01T06:38:07.256Z,93.3
2017-12-01T06:39:08.645Z,93.5
2017-12-01T06:40:10.041Z,93.1
2017-12-01T06:41:11.433Z,93.9
2017-12-01T06:42:12.825Z,93.4
2017-12-01T06:43:14.227Z,93.3
2017-12-01T06:44:15.654Z,93.4
2017-12-01T06:45:17.048Z,93.7
2017-12-01T06:46:18.441Z,93.7
2017-12-01T06:47:19.840Z,93.1
2017-12-01T06:48:21.230Z,93.2
2017-12-01T06:49:22.619Z,93.3
2017-12-01T06:50:24.011Z,93.0
2017-12-01T06:51:25.409Z,93.1
2017-12-01T06:52:26.811Z,93.1
2017-12-01T06:53:28.232Z,93.8
2017-12-01T06:54:29.628Z,93.6
2017-12-01T06:55:31.022Z,93.8
2017-12-01T06:56:32.414Z,93.7
2017-12-01T06:57:33.806Z,93.8
2017-12-01T06:58:35.211Z,93.6
2017-12-01T06:59:36.606Z,93.8
2017-12-01T07:00:38.000Z,93.0
2017-12-01T07:01:39.393Z,93.0
2017-12-01T07:02:40.786Z,93.6
2017-12-01T07:03:42.181Z,93.8
2017-12-01T07:04:43.585Z,93.5
2017-12-01T07:05:44.978Z,93.5
2017-12-01T07:06:46.374Z,93.2
2017-12-01T07:07:47.780Z,93.5
2017-12-01T07:08:49.170Z,93.7
2017-12-01T07:09:50.561Z,93.5
2017-12-01T07:10:51.958Z,93.5
2017-12-01T07:11:53.349Z,93.6
2017-12-01T07:12:54.756Z,93.8
2017-12-01T07:13:56.344Z,93.9
2017-12-01T07:14:57.736Z,94.0
2017-12-01T07:15:59.133Z,93.8
2017-12-01T07:17:00.527Z,94.1
2017-12-01T07:18:01.921Z,93.9
2017-12-01T07:19:03.313Z,93.8
2017-12-01T07:20:04.705Z,93.7
2017-12-01T07:21:06.099Z,93.9
2017-12-01T07:22:07.495Z,93.8
2017-12-01T07:23:08.904Z,93.9
2017-12-01T07:24:10.304Z,93.8
2017-12-01T07:25:11.695Z,94.2
2017-12-01T07:26:13.091Z,94.0
2017-12-01T07:27:14.486Z,93.8
2017-12-01T07:28:15.891Z,93.8
2017-12-01T07:29:17.290Z,93.8
2017-12-01T07:30:18.713Z,94.0
2017-12-01T07:31:20.108Z,94.0
2017-12-01T07:32:21.558Z,93.9
2017-12-01T07:33:22.957Z,94.0
2017-12-01T07:34:24.364Z,94.5
2017-12-01T07:35:25.754Z,94.4
2017-12-01T07:36:27.162Z,94.3
2017-12-01T07:37:28.579Z,94.5
2017-12-01T07:38:29.980Z,94.6
2017-12-01T07:39:31.393Z,94.3
2017-12-01T07:40:32.788Z,94.5
2017-12-01T07:41:34.193Z,95.1
2017-12-01T07:42:35.599Z,95.1
2017-12-01T07:43:36.992Z,94.7
2017-12-01T07:44:38.397Z,94.7
2017-12-01T07:45:39.788Z,94.8
2017-12-01T07:46:41.192Z,94.8
2017-12-01T07:47:42.584Z,94.9
2017-12-01T07:48:43.976Z,94.7
2017-12-01T07:49:45.371Z,94.8
2017-12-01T07:50:46.776Z,94.6
2017-12-01T07:51:48.176Z,94.6
2017-12-01T07:52:49.585Z,94.7
2017-12-01T07:53:50.981Z,94.8
2017-12-01T07:54:52.384Z,94.6
2017-12-01T07:55:53.780Z,94.8
2017-12-01T07:56:55.188Z,94.6
2017-12-01T07:57:56.591Z,94.6
2017-12-01T07:58:57.986Z,94.4
2017-12-01T07:59:59.375Z,94.6
2017-12-01T08:01:00.777Z,94.7
2017-12-01T08:02:02.184Z,95.1
2017-12-01T08:03:03.585Z,94.6
2017-12-01T08:04:04.979Z,95.0
2017-12-01T08:05:06.371Z,94.7
2017-12-01T08:06:07.772Z,94.6
2017-12-01T08:07:09.184Z,94.6
2017-12-01T08:08:10.577Z,94.9
2017-12-01T08:09:11.975Z,94.9
2017-12-01T08:10:13.373Z,94.4
2017-12-01T08:11:14.785Z,94.8
2017-12-01T08:12:16.187Z,94.5
2017-12-01T08:13:17.589Z,94.6
2017-12-01T08:14:18.993Z,94.9
2017-12-01T08:15:20.388Z,94.9
2017-12-01T08:16:21.783Z,94.6
2017-12-01T08:17:23.179Z,94.8
2017-12-01T08:18:24.583Z,94.8
2017-12-01T08:19:25.984Z,94.8
2017-12-01T08:20:27.390Z,95.0
2017-12-01T08:21:28.806Z,94.7
2017-12-01T08:22:30.196Z,94.7
2017-12-01T08:23:31.591Z,94.8
2017-12-01T08:24:33.005Z,94.6
2017-12-01T08:25:34.393Z,94.9
2017-12-01T08:26:35.796Z,94.6
2017-12-01T08:27:37.198Z,94.5
2017-12-01T08:28:38.616Z,94.4
2017-12-01T08:29:40.019Z,94.4
2017-12-01T08:30:41.421Z,95.3
2017-12-01T08:31:42.816Z,94.6
2017-12-01T08:32:44.210Z,94.6
2017-12-01T08:33:45.607Z,94.6
2017-12-01T08:34:47.004Z,94.6
2017-12-01T08:35:48.404Z,95.2
2017-12-01T08:36:49.797Z,95.2
2017-12-01T08:37:51.198Z,94.6
2017-12-01T08:38:52.596Z,95.2
2017-12-01T08:39:53.999Z,95.3
2017-12-01T08:40:55.452Z,95.3
2017-12-01T08:41:56.854Z,94.6
2017-12-01T08:42:58.256Z,95.3
2017-12-01T08:43:59.656Z,95.2
2017-12-01T08:45:01.056Z,94.6
2017-12-01T08:46:02.458Z,94.6
2017-12-01T08:47:03.854Z,94.6
2017-12-01T08:48:05.259Z,94.6
2017-12-01T08:49:06.651Z,94.5
2017-12-01T08:50:08.047Z,94.8
2017-12-01T08:51:09.451Z,94.9
2017-12-01T08:52:10.842Z,94.6
2017-12-01T08:53:12.241Z,94.6
2017-12-01T08:54:13.651Z,94.8
2017-12-01T08:55:15.052Z,94.8
2017-12-01T08:56:16.451Z,94.8
2017-12-01T08:57:17.858Z,95.0
2017-12-01T08:58:19.255Z,95.0
2017-12-01T08:59:20.657Z,94.6
2017-12-01T09:00:22.042Z,94.7
2017-12-01T09:01:23.438Z,95.0
2017-12-01T09:02:24.840Z,94.7
2017-12-01T09:03:26.257Z,94.9
2017-12-01T09:04:27.650Z,94.6
2017-12-01T09:05:29.048Z,95.0
2017-12-01T09:06:30.465Z,95.0
2017-12-01T09:07:31.862Z,94.7
2017-12-01T09:08:33.257Z,95.0
2017-12-01T09:09:34.650Z,95.0
2017-12-01T09:10:36.053Z,95.1
2017-12-01T09:11:37.448Z,94.7
2017-12-01T09:12:38.840Z,94.6
2017-12-01T09:13:40.247Z,95.0
2017-12-01T09:14:41.649Z,94.6
2017-12-01T09:15:43.043Z,94.9
2017-12-01T09:16:44.441Z,94.9
2017-12-01T09:17:45.839Z,94.5
2017-12-01T09:18:47.244Z,94.7
2017-12-01T09:19:48.649Z,94.5
2017-12-01T09:20:50.043Z,94.5
2017-12-01T09:21:51.443Z,94.5
2017-12-01T09:22:52.839Z,94.6
2017-12-01T09:23:54.250Z,94.3
2017-12-01T09:24:55.645Z,93.7
2017-12-01T09:25:57.057Z,94.4
2017-12-01T09:26:58.433Z,94.1
2017-12-01T09:27:59.834Z,93.9
2017-12-01T09:29:01.232Z,93.9
2017-12-01T09:30:02.629Z,93.9
2017-12-01T09:31:04.043Z,93.8
2017-12-01T09:32:05.439Z,94.1
2017-12-01T09:33:06.834Z,93.9
2017-12-01T09:34:08.231Z,93.9
2017-12-01T09:35:09.633Z,93.9
2017-12-01T09:36:11.035Z,93.9
2017-12-01T09:37:12.430Z,94.1
2017-12-01T09:38:13.828Z,93.8
2017-12-01T09:39:15.226Z,93.5
2017-12-01T09:40:16.643Z,93.4
2017-12-01T09:41:18.047Z,93.6
2017-12-01T09:42:19.439Z,94.2
2017-12-01T09:43:20.860Z,93.6
2017-12-01T09:44:22.261Z,93.7
2017-12-01T09:45:23.659Z,93.8
2017-12-01T09:46:25.066Z,93.7
2017-12-01T09:47:26.473Z,93.8
2017-12-01T09:48:27.869Z,93.5
2017-12-01T09:49:29.266Z,92.9
2017-12-01T09:50:30.665Z,93.2
2017-12-01T09:51:32.066Z,93.0
2017-12-01T09:52:33.468Z,93.1
2017-12-01T09:53:34.871Z,93.3
2017-12-01T09:54:36.267Z,93.3
2017-12-01T09:55:37.665Z,93.5
2017-12-01T09:56:39.094Z,93.5
2017-12-01T09:57:40.499Z,93.5
2017-12-01T09:58:41.899Z,93.5
2017-12-01T09:59:43.300Z,93.8
2017-12-01T10:00:44.703Z,93.5
2017-12-01T10:01:46.102Z,93.3
2017-12-01T10:02:47.500Z,93.4
2017-12-01T10:03:48.983Z,93.7
2017-12-01T10:04:50.379Z,93.3
2017-12-01T10:05:51.787Z,93.5
2017-12-01T10:06:53.184Z,93.4
2017-12-01T10:07:54.575Z,93.0
2017-12-01T10:08:55.972Z,93.1
2017-12-01T10:09:57.363Z,92.9
2017-12-01T10:10:58.760Z,92.8
2017-12-01T10:12:00.153Z,93.5
2017-12-01T10:13:01.558Z,93.3
2017-12-01T10:14:02.959Z,93.1
2017-12-01T10:15:04.400Z,93.4
2017-12-01T10:16:05.811Z,92.7
2017-12-01T10:17:07.194Z,92.7
2017-12-01T10:18:08.594Z,92.8
2017-12-01T10:19:09.989Z,93.0
2017-12-01T10:20:11.407Z,93.2
2017-12-01T10:21:12.804Z,93.0
2017-12-01T10:22:14.218Z,93.2
2017-12-01T10:23:15.612Z,92.7
2017-12-01T10:24:17.035Z,92.7
2017-12-01T10:25:18.429Z,92.9
2017-12-01T10:26:19.832Z,92.6
2017-12-01T10:27:21.232Z,92.9
2017-12-01T10:28:22.627Z,93.1
2017-12-01T10:29:24.046Z,92.7
2017-12-01T10:30:25.436Z,93.1
2017-12-01T10:31:26.849Z,92.6
2017-12-01T10:32:28.244Z,92.7
2017-12-01T10:33:29.655Z,92.8
2017-12-01T10:34:31.054Z,93.1
2017-12-01T10:35:32.446Z,92.7
2017-12-01T10:36:33.843Z,92.6
2017-12-01T10:37:35.235Z,92.8
2017-12-01T10:38:36.638Z,92.9
2017-12-01T10:39:38.067Z,92.2
2017-12-01T10:40:39.469Z,92.4
2017-12-01T10:41:40.886Z,92.3
2017-12-01T10:42:42.283Z,92.3
2017-12-01T10:43:43.681Z,92.6
2017-12-01T10:44:45.518Z,91.9
2017-12-01T10:45:46.929Z,91.8
2017-12-01T10:46:48.325Z,91.5
2017-12-01T10:47:49.719Z,91.7
2017-12-01T10:48:51.128Z,91.1
2017-12-01T10:49:52.525Z,91.2
2017-12-01T10:50:53.936Z,91.0
2017-12-01T10:51:55.343Z,90.5
2017-12-01T10:52:56.736Z,90.6
2017-12-01T10:53:58.132Z,90.7
2017-12-01T10:54:59.527Z,90.9
2017-12-01T10:56:00.931Z,91.0
2017-12-01T10:57:02.327Z,90.9
2017-12-01T10:58:03.752Z,90.7
2017-12-01T10:59:05.144Z,90.4
2017-12-01T11:00:06.539Z,90.7
2017-12-01T11:01:07.945Z,90.1
2017-12-01T11:02:09.337Z,89.8
2017-12-01T11:03:10.732Z,89.6
2017-12-01T11:04:12.132Z,89.2
2017-12-01T11:05:13.521Z,89.1
2017-12-01T11:06:14.926Z,89.0
2017-12-01T11:07:16.320Z,89.3
2017-12-01T11:08:17.712Z,89.0
2017-12-01T11:09:19.111Z,89.2
2017-12-01T11:10:20.785Z,88.9
2017-12-01T11:11:22.182Z,89.4
2017-12-01T11:12:23.576Z,89.0
2017-12-01T11:13:24.976Z,88.9
2017-12-01T11:14:26.369Z,88.9
2017-12-01T11:15:27.784Z,89.0
2017-12-01T11:16:29.352Z,88.4
2017-12-01T11:17:30.749Z,88.5
2017-12-01T11:18:32.147Z,88.5
2017-12-01T11:19:33.540Z,88.5
2017-12-01T11:20:34.952Z,88.5
2017-12-01T11:21:36.350Z,88.5
2017-12-01T11:22:37.746Z,88.4
2017-12-01T11:23:39.141Z,88.5
2017-12-01T11:24:40.539Z,88.6
2017-12-01T11:25:41.930Z,88.6
2017-12-01T11:26:43.328Z,88.6
2017-12-01T11:27:44.720Z,88.7
2017-12-01T11:28:46.126Z,88.7
2017-12-01T11:29:47.529Z,88.5
2017-12-01T11:30:48.927Z,88.8
2017-12-01T11:31:50.331Z,88.3
2017-12-01T11:32:51.729Z,88.3
2017-12-01T11:33:53.127Z,88.2
2017-12-01T11:34:54.524Z,88.4
2017-12-01T11:35:55.915Z,88.4
2017-12-01T11:36:57.317Z,88.4
2017-12-01T11:37:58.725Z,87.9
2017-12-01T11:39:00.123Z,88.0
2017-12-01T11:40:01.523Z,88.1
2017-12-01T11:41:03.031Z,88.0
2017-12-01T11:42:04.431Z,88.0
2017-12-01T11:43:06.414Z,88.6
2017-12-01T11:44:07.832Z,88.2
2017-12-01T11:45:10.043Z,88.0
2017-12-01T11:46:11.418Z,88.2
2017-12-01T11:47:12.821Z,88.2
2017-12-01T11:48:14.233Z,88.0
2017-12-01T11:49:15.723Z,88.0
2017-12-01T11:50:17.117Z,88.5
2017-12-01T11:51:18.520Z,88.0
2017-12-01T11:52:19.938Z,88.0
2017-12-01T11:53:21.345Z,88.0
2017-12-01T11:54:22.742Z,87.9
2017-12-01T11:55:24.140Z,87.9
2017-12-01T11:56:25.534Z,88.0
2017-12-01T11:57:26.930Z,88.2
2017-12-01T11:58:28.372Z,88.3
2017-12-01T11:59:29.769Z,87.6
2017-12-01T12:00:31.193Z,88.2
2017-12-01T12:01:32.590Z,88.0
2017-12-01T12:02:34.016Z,88.3
2017-12-01T12:03:35.416Z,88.3
2017-12-01T12:04:36.809Z,87.5
2017-12-01T12:05:38.204Z,87.4
2017-12-01T12:06:39.603Z,87.9
2017-12-01T12:07:41.000Z,87.9
2017-12-01T12:08:42.430Z,87.5
2017-12-01T12:09:43.827Z,87.8
2017-12-01T12:10:45.237Z,87.9
2017-12-01T12:11:46.635Z,87.2
2017-12-01T12:12:48.034Z,87.9
2017-12-01T12:13:49.431Z,87.7
2017-12-01T12:14:50.837Z,87.7
2017-12-01T12:15:52.230Z,87.8
2017-12-01T12:16:53.631Z,87.6
2017-12-01T12:17:55.032Z,87.3
2017-12-01T12:18:56.426Z,87.4
2017-12-01T12:19:57.833Z,87.3
2017-12-01T12:20:59.241Z,87.2
2017-12-01T12:22:00.638Z,87.0
2017-12-01T12:23:02.031Z,86.8
2017-12-01T12:24:03.443Z,86.8
2017-12-01T12:25:04.839Z,86.7
2017-12-01T12:26:06.789Z,86.6
2017-12-01T12:27:08.212Z,86.8
2017-12-01T12:28:10.338Z,87.0
2017-12-01T12:29:12.021Z,86.8
2017-12-01T12:30:13.422Z,87.0
2017-12-01T12:31:14.837Z,87.0
2017-12-01T12:32:16.239Z,87.1
2017-12-01T12:33:17.660Z,86.7
2017-12-01T12:34:19.103Z,87.1
2017-12-01T12:35:20.519Z,87.0
2017-12-01T12:36:21.915Z,87.1
2017-12-01T12:37:23.319Z,86.8
2017-12-01T12:38:24.728Z,86.8
2017-12-01T12:39:26.125Z,86.8
2017-12-01T12:40:27.517Z,86.3
2017-12-01T12:41:28.909Z,86.5
2017-12-01T12:42:30.318Z,86.2
2017-12-01T12:43:31.714Z,86.4
2017-12-01T12:44:33.129Z,86.7
2017-12-01T12:45:34.526Z,86.6
2017-12-01T12:46:35.932Z,86.4
2017-12-01T12:47:37.327Z,86.0
2017-12-01T12:48:38.729Z,86.1
2017-12-01T12:49:40.130Z,85.8
2017-12-01T12:50:41.568Z,85.5
2017-12-01T12:51:42.965Z,86.2
2017-12-01T12:52:44.358Z,85.9
2017-12-01T12:53:45.756Z,85.0
2017-12-01T12:54:47.158Z,85.4
2017-12-01T12:55:48.552Z,85.3
2017-12-01T12:56:49.946Z,84.7
2017-12-01T12:57:51.343Z,85.0
2017-12-01T12:58:52.737Z,85.3
2017-12-01T12:59:54.136Z,84.8
2017-12-01T13:00:55.528Z,85.0
2017-12-01T13:01:56.927Z,85.0
2017-12-01T13:02:58.324Z,84.9
2017-12-01T13:03:59.720Z,84.8
2017-12-01T13:05:01.143Z,85.1
2017-12-01T13:06:02.531Z,85.1
2017-12-01T13:07:03.927Z,84.9
2017-12-01T13:08:05.321Z,85.1
2017-12-01T13:09:06.716Z,85.0
2017-12-01T13:10:08.110Z,84.8
2017-12-01T13:11:09.520Z,84.7
2017-12-01T13:12:10.916Z,84.6
2017-12-01T13:13:12.329Z,84.7
2017-12-01T13:14:13.712Z,84.4
2017-12-01T13:15:15.257Z,84.3
2017-12-01T13:16:16.653Z,84.4
2017-12-01T13:17:18.048Z,84.3
2017-12-01T13:18:19.440Z,84.0
2017-12-01T13:19:20.878Z,84.2
2017-12-01T13:20:22.276Z,83.8
2017-12-01T13:21:23.672Z,84.4
2017-12-01T13:22:25.069Z,83.6
2017-12-01T13:23:26.487Z,83.8
2017-12-01T13:24:27.877Z,83.6
2017-12-01T13:25:29.300Z,83.7
2017-12-01T13:26:30.714Z,83.8
2017-12-01T13:27:32.109Z,83.7
2017-12-01T13:28:33.505Z,83.8
2017-12-01T13:29:34.903Z,83.7
2017-12-01T13:30:36.295Z,84.0
2017-12-01T13:31:37.693Z,83.8
2017-12-01T13:32:39.095Z,83.8
2017-12-01T13:33:40.683Z,83.9
2017-12-01T13:34:42.069Z,83.7
2017-12-01T13:35:43.476Z,84.1
2017-12-01T13:36:44.871Z,83.9
2017-12-01T13:37:46.263Z,83.6